Time;durP1;ratioP1;P1;durP2;ratioP2;P2;SDS_P1;SDS_P2;PMS_P1;PMS_P2;Temp;Humidity;BMP_temperature;BMP_pressure;BME280_temperature;BME280_humidity;BME280_pressure;Samples;Min_cycle;Max_cycle;Signal;HPM_P1;HPM_P2
2023/08/04 00:00:57;;;;;;;4.30;2.15;;;14.80;99.90;;;;;;5032690;28;20232;-73
2023/08/04 00:03:22;;;;;;;4.03;1.80;;;14.90;99.90;;;;;;5029673;28;20527;-73
2023/08/04 00:05:48;;;;;;;5.13;1.65;;;14.90;99.90;;;;;;5031426;28;20185;-73
2023/08/04 00:08:13;;;;;;;5.18;1.88;;;14.90;99.90;;;;;;5031258;28;20170;-73
2023/08/04 00:10:39;;;;;;;7.10;1.90;;;14.90;99.90;;;;;;5031178;28;20560;-73
2023/08/04 00:13:05;;;;;;;2.38;1.70;;;15.00;99.90;;;;;;5031215;28;20637;-74
2023/08/04 00:15:30;;;;;;;5.10;2.00;;;16.10;99.90;;;;;;5029652;28;20170;-73
2023/08/04 00:17:56;;;;;;;5.53;2.03;;;14.80;99.90;;;;;;5030805;28;20632;-73
2023/08/04 00:20:22;;;;;;;6.10;2.00;;;14.90;99.90;;;;;;5030948;28;20216;-73
2023/08/04 00:22:47;;;;;;;3.20;2.15;;;14.90;99.90;;;;;;5033141;28;20270;-74
2023/08/04 00:25:13;;;;;;;4.00;2.22;;;14.90;99.90;;;;;;5043638;28;20170;-73
2023/08/04 00:27:39;;;;;;;4.72;2.08;;;14.70;99.90;;;;;;5041066;28;20185;-73
2023/08/04 00:30:05;;;;;;;4.40;1.98;;;14.80;99.90;;;;;;5047658;28;20173;-73
2023/08/04 00:32:30;;;;;;;2.30;1.67;;;14.80;99.90;;;;;;5036624;28;20204;-73
2023/08/04 00:34:57;;;;;;;4.65;2.05;;;14.80;99.90;;;;;;5035596;28;20562;-73
2023/08/04 00:37:22;;;;;;;7.60;2.17;;;14.70;99.90;;;;;;5040872;28;20228;-73
2023/08/04 00:39:48;;;;;;;5.45;2.30;;;14.80;99.90;;;;;;5032325;28;20166;-74
2023/08/04 00:42:13;;;;;;;2.90;2.03;;;14.80;99.90;;;;;;5030737;28;20664;-74
2023/08/04 00:44:39;;;;;;;5.38;2.03;;;14.80;99.90;;;;;;5030887;28;20173;-74
2023/08/04 00:47:05;;;;;;;3.60;1.90;;;14.80;99.90;;;;;;5030761;28;20181;-74
2023/08/04 00:49:32;;;;;;;5.25;1.98;;;14.80;99.90;;;;;;5030869;28;20288;-74
2023/08/04 00:51:58;;;;;;;7.38;1.98;;;14.80;99.90;;;;;;5030740;28;20240;-74
2023/08/04 00:54:24;;;;;;;6.45;2.20;;;14.80;99.90;;;;;;5030702;28;20578;-74
2023/08/04 00:56:54;;;;;;;7.25;2.33;;;14.80;99.90;;;;;;5030727;28;20170;-74
2023/08/04 00:59:19;;;;;;;6.47;2.42;;;14.80;99.90;;;;;;5030732;28;20253;-74
2023/08/04 01:01:47;;;;;;;3.58;2.13;;;14.80;99.90;;;;;;5029306;28;20739;-75
2023/08/04 01:04:13;;;;;;;3.72;2.08;;;14.70;99.90;;;;;;5030752;28;20616;-74
2023/08/04 01:06:51;;;;;;;5.68;2.10;;;14.80;99.90;;;;;;5030623;28;20744;-73
2023/08/04 01:09:33;;;;;;;6.00;1.98;;;14.70;99.90;;;;;;5030660;28;20197;-73
2023/08/04 01:12:22;;;;;;;6.95;1.98;;;14.70;99.90;;;;;;5030672;28;20162;-73
2023/08/04 01:14:51;;;;;;;5.05;1.92;;;14.70;99.90;;;;;;5033817;28;20522;-73
2023/08/04 01:17:29;;;;;;;7.93;2.05;;;14.70;99.90;;;;;;5034982;28;20200;-72
2023/08/04 01:19:56;;;;;;;8.38;2.03;;;14.70;99.90;;;;;;5034567;28;20205;-73
2023/08/04 01:22:22;;;;;;;5.00;2.08;;;;;;;;;;5034354;28;20206;-73
2023/08/04 01:24:49;;;;;;;5.38;2.22;;;14.70;99.90;;;;;;5034226;28;20249;-73
2023/08/04 01:27:21;;;;;;;5.65;2.33;;;14.70;99.90;;;;;;5034274;28;20177;-74
2023/08/04 01:29:47;;;;;;;5.78;2.30;;;14.80;99.90;;;;;;5032958;28;20227;-73
2023/08/04 01:32:13;;;;;;;5.95;2.20;;;14.80;99.90;;;;;;5034057;28;20655;-73
2023/08/04 01:34:41;;;;;;;3.92;2.00;;;14.70;99.90;;;;;;5034189;28;20174;-73
2023/08/04 01:37:08;;;;;;;4.20;1.90;;;14.80;99.90;;;;;;5033823;28;20692;-73
2023/08/04 01:39:34;;;;;;;4.93;2.00;;;14.80;99.90;;;;;;5033866;28;20645;-74
2023/08/04 01:42:00;;;;;;;4.82;1.98;;;14.80;99.90;;;;;;5048182;28;20241;-72
2023/08/04 01:44:25;;;;;;;7.68;2.20;;;15.10;99.90;;;;;;5035947;28;20612;-72
2023/08/04 01:46:51;;;;;;;3.83;1.98;;;14.80;99.90;;;;;;5053456;28;20177;-72
2023/08/04 01:49:16;;;;;;;7.53;1.98;;;15.10;99.90;;;;;;5038929;28;20170;-72
2023/08/04 01:51:42;;;;;;;5.90;2.33;;;15.20;99.90;;;;;;5033791;28;20173;-73
2023/08/04 01:54:08;;;;;;;4.43;2.10;;;15.00;99.90;;;;;;5033673;28;20181;-73
2023/08/04 01:56:33;;;;;;;4.35;2.30;;;15.10;99.90;;;;;;5036222;28;20181;-73
2023/08/04 01:58:59;;;;;;;3.72;1.90;;;15.10;99.90;;;;;;5033908;28;20220;-73
2023/08/04 02:01:24;;;;;;;3.58;2.00;;;15.30;99.90;;;;;;5033574;28;20205;-73
2023/08/04 02:03:50;;;;;;;5.95;2.15;;;15.20;99.90;;;;;;5032414;28;20181;-73
2023/08/04 02:06:16;;;;;;;6.22;2.03;;;15.40;99.90;;;;;;5033348;28;20198;-73
2023/08/04 02:08:41;;;;;;;4.72;2.40;;;15.20;99.90;;;;;;5033522;28;20230;-73
2023/08/04 02:11:07;;;;;;;5.28;2.25;;;15.30;99.90;;;;;;5032149;28;20178;-73
2023/08/04 02:13:33;;;;;;;2.55;1.95;;;15.40;99.90;;;;;;5034138;28;20169;-73
2023/08/04 02:15:59;;;;;;;3.72;2.20;;;15.40;99.90;;;;;;5033391;28;20287;-73
2023/08/04 02:18:24;;;;;;;5.43;2.40;;;15.30;99.90;;;;;;5033215;28;20162;-73
2023/08/04 02:20:50;;;;;;;8.10;2.30;;;15.30;99.90;;;;;;5033173;28;20180;-74
2023/08/04 02:23:15;;;;;;;5.00;2.20;;;15.90;99.90;;;;;;5033130;28;20548;-72
2023/08/04 02:25:41;;;;;;;5.75;2.38;;;15.40;99.90;;;;;;5031658;28;20181;-73
2023/08/04 02:28:07;;;;;;;6.05;2.08;;;15.30;99.90;;;;;;5031822;28;20188;-74
2023/08/04 02:30:33;;;;;;;5.15;2.08;;;15.30;99.90;;;;;;5033045;28;20264;-74
2023/08/04 02:32:59;;;;;;;3.72;2.05;;;;;;;;;;5020648;28;20273;-75
2023/08/04 02:35:25;;;;;;;3.80;2.22;;;15.40;99.90;;;;;;5033069;28;20178;-74
2023/08/04 02:37:50;;;;;;;6.47;2.17;;;15.30;99.90;;;;;;5023662;28;20221;-74
2023/08/04 02:40:16;;;;;;;3.78;2.33;;;15.40;99.90;;;;;;5013109;28;20163;-74
2023/08/04 02:42:41;;;;;;;5.22;2.40;;;15.50;99.90;;;;;;5037077;28;20204;-73
2023/08/04 02:45:08;;;;;;;4.97;2.38;;;15.50;99.90;;;;;;5052262;28;20173;-73
2023/08/04 02:47:34;;;;;;;6.10;2.20;;;15.50;99.90;;;;;;5040657;28;20656;-73
2023/08/04 02:49:59;;;;;;;3.88;2.42;;;15.50;99.90;;;;;;5023607;28;20182;-73
2023/08/04 02:52:25;;;;;;;7.47;2.10;;;15.50;99.90;;;;;;5033789;28;20181;-75
2023/08/04 02:54:55;;;;;;;4.32;1.80;;;15.80;99.90;;;;;;5038175;28;20666;-74
2023/08/04 02:57:20;;;;;;;4.55;2.22;;;15.50;99.90;;;;;;5052127;28;20175;-73
2023/08/04 02:59:46;;;;;;;3.45;2.20;;;15.40;99.90;;;;;;5052153;28;20173;-74
2023/08/04 03:02:11;;;;;;;5.47;2.35;;;15.60;99.90;;;;;;5047592;28;20270;-73
2023/08/04 03:04:39;;;;;;;5.03;2.10;;;15.30;99.90;;;;;;5034379;28;20178;-73
2023/08/04 03:07:05;;;;;;;8.10;2.70;;;15.50;99.90;;;;;;5032045;28;20241;-73
2023/08/04 03:09:30;;;;;;;2.85;1.90;;;15.60;99.90;;;;;;5044203;28;20268;-73
2023/08/04 03:11:56;;;;;;;6.13;2.03;;;15.50;99.90;;;;;;5038716;28;20189;-74
2023/08/04 03:14:22;;;;;;;6.30;2.47;;;15.60;99.90;;;;;;5047325;28;20236;-74
2023/08/04 03:16:49;;;;;;;4.95;2.10;;;15.60;99.90;;;;;;5032286;28;20177;-74
2023/08/04 03:19:16;;;;;;;9.80;2.58;;;16.80;99.90;;;;;;5044068;28;20231;-74
2023/08/04 03:21:42;;;;;;;6.90;2.38;;;15.70;99.90;;;;;;5042206;28;20228;-74
2023/08/04 03:24:08;;;;;;;5.65;1.88;;;15.80;99.90;;;;;;5048498;28;20173;-74
2023/08/04 03:26:33;;;;;;;11.45;2.33;;;15.70;99.90;;;;;;5050133;28;20592;-74
2023/08/04 03:28:59;;;;;;;4.93;2.33;;;15.70;99.90;;;;;;5031394;28;20182;-74
2023/08/04 03:31:24;;;;;;;6.45;2.47;;;15.70;99.90;;;;;;5043714;28;20181;-74
2023/08/04 03:33:50;;;;;;;6.50;2.15;;;15.70;99.90;;;;;;5028877;28;20258;-73
2023/08/04 03:36:15;;;;;;;7.20;2.08;;;15.70;99.90;;;;;;5024652;28;20185;-74
2023/08/04 03:38:41;;;;;;;10.40;2.40;;;15.60;99.90;;;;;;5042980;28;20710;-74
2023/08/04 03:41:07;;;;;;;6.45;2.67;;;15.80;99.90;;;;;;5016365;28;20216;-74
2023/08/04 03:43:32;;;;;;;9.05;2.40;;;15.80;99.90;;;;;;5039198;28;20170;-74
2023/08/04 03:45:58;;;;;;;10.88;2.33;;;14.10;99.90;;;;;;5049759;28;20242;-74
2023/08/04 03:48:23;;;;;;;5.80;2.00;;;15.70;99.90;;;;;;5041041;28;20237;-74
2023/08/04 03:50:49;;;;;;;8.85;2.83;;;15.80;99.90;;;;;;5035322;28;20209;-75
2023/08/04 03:53:14;;;;;;;6.47;2.50;;;15.70;99.90;;;;;;5031359;28;20178;-74
2023/08/04 03:55:40;;;;;;;3.72;2.30;;;15.70;99.90;;;;;;5031361;28;20228;-74
2023/08/04 03:58:06;;;;;;;12.85;2.58;;;15.80;99.90;;;;;;5031532;28;20170;-74
2023/08/04 04:00:31;;;;;;;5.13;2.20;;;15.80;99.90;;;;;;5031353;28;20174;-74
2023/08/04 04:02:57;;;;;;;4.85;2.03;;;15.80;99.90;;;;;;5031366;28;20216;-74
2023/08/04 04:05:22;;;;;;;5.80;2.20;;;15.80;99.90;;;;;;5031399;28;20166;-75
2023/08/04 04:07:48;;;;;;;6.85;2.42;;;15.60;99.90;;;;;;5031284;28;20252;-75
2023/08/04 04:10:13;;;;;;;9.50;2.20;;;15.90;99.90;;;;;;5031307;28;20162;-73
2023/08/04 04:12:39;;;;;;;5.57;2.20;;;16.00;99.90;;;;;;5031182;28;20573;-72
2023/08/04 04:15:06;;;;;;;7.90;2.08;;;15.90;99.90;;;;;;5031054;28;20276;-73
2023/08/04 04:17:31;;;;;;;9.93;2.53;;;15.90;99.90;;;;;;5031139;28;20174;-72
2023/08/04 04:19:57;;;;;;;5.68;2.35;;;16.00;99.90;;;;;;5031236;28;20612;-72
2023/08/04 04:22:23;;;;;;;3.55;1.95;;;15.90;99.90;;;;;;5031066;28;20220;-73
2023/08/04 04:24:48;;;;;;;6.50;2.13;;;15.90;99.90;;;;;;5031112;28;20170;-73
2023/08/04 04:27:14;;;;;;;5.93;1.95;;;16.00;99.90;;;;;;5033136;28;20177;-73
2023/08/04 04:29:39;;;;;;;6.25;2.00;;;15.70;99.90;;;;;;5031192;28;20621;-73
2023/08/04 04:32:06;;;;;;;5.35;1.70;;;15.80;99.90;;;;;;5031065;28;20178;-73
2023/08/04 04:34:32;;;;;;;5.97;1.83;;;15.80;99.90;;;;;;5030712;28;20649;-72
2023/08/04 04:36:58;;;;;;;6.95;2.10;;;;;;;;;;5030742;28;20217;-73
2023/08/04 04:39:25;;;;;;;10.30;2.17;;;15.70;99.90;;;;;;5030939;28;20173;-73
2023/08/04 04:41:51;;;;;;;6.05;1.65;;;15.70;99.90;;;;;;5031030;28;20205;-73
2023/08/04 04:44:16;;;;;;;6.05;2.10;;;15.80;99.90;;;;;;5030643;28;20177;-73
2023/08/04 04:46:42;;;;;;;5.00;1.98;;;15.70;99.90;;;;;;5030820;28;20659;-73
2023/08/04 04:49:07;;;;;;;6.65;1.80;;;15.70;99.90;;;;;;5032469;28;20189;-74
2023/08/04 04:51:33;;;;;;;6.72;1.92;;;15.70;99.90;;;;;;5052390;28;20695;-72
2023/08/04 04:53:59;;;;;;;6.50;1.63;;;15.70;99.90;;;;;;5051782;28;20793;-72
2023/08/04 04:56:24;;;;;;;6.82;1.80;;;15.70;99.90;;;;;;5054316;28;20225;-74
2023/08/04 04:58:50;;;;;;;4.68;1.58;;;15.70;99.90;;;;;;5048285;28;20193;-72
2023/08/04 05:01:16;;;;;;;6.80;1.73;;;15.70;99.90;;;;;;5042088;28;20205;-72
2023/08/04 05:03:42;;;;;;;7.88;1.42;;;15.70;99.90;;;;;;5033353;28;20176;-75
2023/08/04 05:06:07;;;;;;;5.43;1.60;;;15.70;99.90;;;;;;5035947;28;20515;-74
2023/08/04 05:08:33;;;;;;;7.35;1.80;;;15.80;99.90;;;;;;5046510;28;20644;-73
2023/08/04 05:10:59;;;;;;;6.30;1.50;;;15.70;99.90;;;;;;5034649;28;20173;-73
2023/08/04 05:13:24;;;;;;;6.28;1.90;;;15.70;99.90;;;;;;5034400;28;20597;-73
2023/08/04 05:15:50;;;;;;;5.07;1.80;;;;;;;;;;5034450;28;20601;-73
2023/08/04 05:18:16;;;;;;;6.35;1.83;;;15.80;99.90;;;;;;5033031;28;20181;-73
2023/08/04 05:20:46;;;;;;;7.13;1.50;;;15.70;99.90;;;;;;5034267;28;20173;-72
2023/08/04 05:23:12;;;;;;;6.03;1.70;;;15.70;99.90;;;;;;5032999;28;20533;-73
2023/08/04 05:25:39;;;;;;;4.78;1.50;;;15.70;99.90;;;;;;5034206;28;20178;-72
2023/08/04 05:28:27;;;;;;;9.63;1.58;;;15.80;99.90;;;;;;5034292;28;20178;-72
2023/08/04 05:30:56;;;;;;;4.63;1.27;;;15.80;99.90;;;;;;5034100;28;20166;-73
2023/08/04 05:33:22;;;;;;;4.72;1.48;;;15.90;99.90;;;;;;5034133;28;20212;-73
2023/08/04 05:35:48;;;;;;;5.15;1.50;;;15.90;99.90;;;;;;5034110;28;20277;-73
2023/08/04 05:38:13;;;;;;;7.63;1.73;;;15.90;99.90;;;;;;5033688;28;20743;-74
2023/08/04 05:40:43;;;;;;;5.40;1.33;;;15.90;99.90;;;;;;5034079;28;20618;-73
2023/08/04 05:43:09;;;;;;;5.50;1.67;;;15.90;99.90;;;;;;5035195;28;20209;-72
2023/08/04 05:45:41;;;;;;;11.30;1.20;;;15.90;99.90;;;;;;5034311;28;20194;-74
2023/08/04 05:48:07;;;;;;;4.80;1.40;;;15.90;99.90;;;;;;5033944;28;20177;-73
2023/08/04 05:50:33;;;;;;;6.20;1.85;;;;;;;;;;5033815;28;20644;-73
2023/08/04 05:52:59;;;;;;;5.47;1.15;;;15.90;99.90;;;;;;5023033;28;20203;-73
2023/08/04 05:55:25;;;;;;;6.25;1.55;;;16.10;99.90;;;;;;5030513;28;20845;-73
2023/08/04 05:57:51;;;;;;;4.07;1.50;;;16.10;99.90;;;;;;5030155;28;20170;-73
2023/08/04 06:00:17;;;;;;;4.53;1.50;;;16.00;99.90;;;;;;5013269;28;20198;-73
2023/08/04 06:02:44;;;;;;;4.18;1.15;;;16.40;99.90;;;;;;5028986;28;20209;-73
2023/08/04 06:05:14;;;;;;;3.90;1.40;;;16.10;99.90;;;;;;5033578;28;20174;-73
2023/08/04 06:07:40;;;;;;;6.60;1.10;;;16.20;99.90;;;;;;5033159;28;20178;-73
2023/08/04 06:10:06;;;;;;;7.78;1.25;;;16.20;99.90;;;;;;5033207;28;20579;-74
2023/08/04 06:12:32;;;;;;;4.35;1.38;;;16.20;99.90;;;;;;5033069;28;20213;-73
2023/08/04 06:14:57;;;;;;;5.10;1.17;;;16.30;99.90;;;;;;5031920;28;20198;-73
2023/08/04 06:17:23;;;;;;;3.63;1.15;;;16.20;99.90;;;;;;5033144;28;20249;-74
2023/08/04 06:19:49;;;;;;;10.15;1.80;;;16.30;99.90;;;;;;5033205;28;20302;-74
2023/08/04 06:22:15;;;;;;;7.80;1.33;;;16.30;99.90;;;;;;5037789;28;20209;-74
2023/08/04 06:24:41;;;;;;;3.58;1.10;;;16.30;99.90;;;;;;5033070;28;20239;-73
2023/08/04 06:27:07;;;;;;;4.30;1.85;;;16.30;99.90;;;;;;5036434;28;20172;-72
2023/08/04 06:29:33;;;;;;;6.18;1.38;;;16.30;99.90;;;;;;5042731;28;20170;-74
2023/08/04 06:31:59;;;;;;;6.82;1.40;;;16.30;99.90;;;;;;5033334;28;20224;-72
2023/08/04 06:34:25;;;;;;;5.40;1.35;;;;;;;;;;5032830;28;20170;-73
2023/08/04 06:36:51;;;;;;;9.05;1.27;;;16.30;99.90;;;;;;5032486;28;20220;-73
2023/08/04 06:39:16;;;;;;;6.57;1.42;;;16.40;99.90;;;;;;5032766;28;20162;-73
2023/08/04 06:41:42;;;;;;;8.90;1.23;;;16.30;99.90;;;;;;5040047;28;20216;-72
2023/08/04 06:44:08;;;;;;;7.57;1.42;;;16.40;99.90;;;;;;5047022;28;20177;-74
2023/08/04 06:46:34;;;;;;;8.98;1.40;;;16.50;99.90;;;;;;5031084;28;20325;-74
2023/08/04 06:48:59;;;;;;;6.10;1.50;;;16.20;99.90;;;;;;5027013;28;20185;-73
2023/08/04 06:51:25;;;;;;;3.90;1.05;;;16.50;99.90;;;;;;5032398;28;20191;-72
2023/08/04 06:53:51;;;;;;;6.53;1.35;;;16.70;99.90;;;;;;5031671;28;20170;-74
2023/08/04 06:56:18;;;;;;;7.18;1.60;;;16.60;99.90;;;;;;5031233;28;20185;-74
2023/08/04 06:58:43;;;;;;;4.55;1.00;;;16.60;99.90;;;;;;5033733;28;20170;-72
2023/08/04 07:01:09;;;;;;;5.57;1.00;;;16.60;99.90;;;;;;5034178;28;20204;-73
2023/08/04 07:03:35;;;;;;;5.10;0.90;;;16.60;99.90;;;;;;5015082;28;20193;-74
2023/08/04 07:06:00;;;;;;;4.13;0.80;;;16.60;99.90;;;;;;5012672;28;20270;-73
2023/08/04 07:08:26;;;;;;;2.55;0.60;;;16.60;99.90;;;;;;5012431;28;20730;-73
2023/08/04 07:10:52;;;;;;;2.30;0.80;;;16.60;99.90;;;;;;5024586;28;20174;-73
2023/08/04 07:13:17;;;;;;;4.90;0.93;;;16.80;99.90;;;;;;5036703;28;20265;-74
2023/08/04 07:15:54;;;;;;;4.00;1.27;;;16.70;99.90;;;;;;5031955;28;20174;-74
2023/08/04 07:18:20;;;;;;;3.40;0.80;;;16.90;99.90;;;;;;5012279;28;20170;-74
2023/08/04 07:20:45;;;;;;;3.00;0.90;;;16.80;99.90;;;;;;5011852;28;20189;-74
2023/08/04 07:23:11;;;;;;;2.67;0.80;;;16.80;99.90;;;;;;5012254;28;20553;-73
2023/08/04 07:25:37;;;;;;;1.45;0.73;;;;;;;;;;5012089;28;20174;-73
2023/08/04 07:28:03;;;;;;;3.00;0.90;;;17.00;99.90;;;;;;5039101;28;20264;-74
2023/08/04 07:30:32;;;;;;;3.50;0.82;;;17.00;99.90;;;;;;5039392;28;20257;-74
2023/08/04 07:32:58;;;;;;;4.53;1.73;;;16.90;99.90;;;;;;5031563;28;20703;-72
2023/08/04 07:35:24;;;;;;;2.65;0.57;;;16.90;99.90;;;;;;5031514;28;20218;-73
2023/08/04 07:37:49;;;;;;;6.05;0.70;;;17.00;99.90;;;;;;5032227;28;20275;-74
2023/08/04 07:40:15;;;;;;;4.00;0.98;;;17.10;99.90;;;;;;5044085;28;20216;-73
2023/08/04 07:42:41;;;;;;;8.73;0.88;;;17.10;99.90;;;;;;5038270;28;20260;-73
2023/08/04 07:45:08;;;;;;;2.90;0.75;;;17.20;99.90;;;;;;5031615;28;20177;-73
2023/08/04 07:47:33;;;;;;;4.07;0.88;;;17.20;99.90;;;;;;5031564;28;20166;-73
2023/08/04 07:49:59;;;;;;;4.50;0.70;;;17.20;99.90;;;;;;5031513;28;20174;-73
2023/08/04 07:52:24;;;;;;;6.80;1.35;;;17.30;99.90;;;;;;5031654;28;20174;-73
2023/08/04 07:54:50;;;;;;;5.10;1.10;;;17.40;99.90;;;;;;5031305;28;20257;-73
2023/08/04 07:57:15;;;;;;;7.22;0.93;;;17.60;99.90;;;;;;5031404;28;20162;-72
2023/08/04 07:59:41;;;;;;;3.13;0.52;;;17.60;20.50;;;;;;5031466;28;20208;-73
2023/08/04 08:02:07;;;;;;;3.17;0.73;;;17.70;41.00;;;;;;5036549;28;20208;-73
2023/08/04 08:04:32;;;;;;;3.20;0.50;;;17.60;99.90;;;;;;5051166;28;20671;-73
2023/08/04 08:06:58;;;;;;;0.93;0.50;;;17.60;1.00;;;;;;5051193;28;20513;-73
2023/08/04 08:09:23;;;;;;;4.72;0.88;;;17.70;99.90;;;;;;5049773;28;20323;-73
2023/08/04 08:11:50;;;;;;;1.50;0.60;;;17.90;99.90;;;;;;5039846;28;20180;-74
2023/08/04 08:14:16;;;;;;;4.07;0.70;;;18.00;99.90;;;;;;5031193;28;20224;-73
2023/08/04 08:16:42;;;;;;;2.30;0.60;;;18.10;99.90;;;;;;5035526;28;20173;-73
2023/08/04 08:19:09;;;;;;;3.13;0.55;;;18.00;1.00;;;;;;5050911;28;20167;-73
2023/08/04 08:21:35;;;;;;;5.25;0.70;;;17.90;99.90;;;;;;5041869;28;20272;-73
2023/08/04 08:24:01;;;;;;;1.52;0.52;;;18.10;1.00;;;;;;5030909;28;20580;-75
2023/08/04 08:26:26;;;;;;;1.42;0.40;;;18.00;1.00;;;;;;5031325;28;20568;-74
2023/08/04 08:28:52;;;;;;;3.95;0.50;;;17.90;1.00;;;;;;5030917;28;20173;-73
2023/08/04 08:31:18;;;;;;;1.92;0.43;;;;;;;;;;5030086;28;20176;-73
2023/08/04 08:33:43;;;;;;;4.20;0.50;;;17.90;1.00;;;;;;5030849;28;20540;-73
2023/08/04 08:36:09;;;;;;;1.45;0.50;;;;;;;;;;5038299;28;20173;-74
2023/08/04 08:38:35;;;;;;;1.13;0.40;;;18.70;1.00;;;;;;5047724;28;20236;-75
2023/08/04 08:41:01;;;;;;;1.75;0.50;;;18.90;1.00;;;;;;5031035;28;20208;-75
2023/08/04 08:43:28;;;;;;;0.70;0.40;;;;;;;;;;5030727;28;20264;-74
2023/08/04 08:45:57;;;;;;;1.20;0.40;;;;;;;;;;5029694;28;20178;-76
2023/08/04 08:48:24;;;;;;;1.55;0.30;;;18.60;1.00;;;;;;5030709;28;20166;-73
2023/08/04 08:50:58;;;;;;;2.28;0.98;;;19.20;99.90;;;;;;5030767;28;20177;-74
2023/08/04 08:53:28;;;;;;;0.95;0.40;;;19.00;1.00;;;;;;5031300;28;20178;-75
2023/08/04 08:55:53;;;;;;;3.30;0.65;;;18.90;99.90;;;;;;5030877;28;20547;-75
2023/08/04 08:58:19;;;;;;;2.22;0.50;;;18.60;1.00;;;;;;5030822;28;20660;-75
2023/08/04 09:00:45;;;;;;;1.27;0.40;;;18.60;99.90;;;;;;5035324;28;20911;-74
2023/08/04 09:03:11;;;;;;;2.13;0.50;;;18.70;1.00;;;;;;5030264;28;20217;-74
2023/08/04 09:05:37;;;;;;;2.78;0.52;;;18.60;1.00;;;;;;5021006;28;20175;-74
2023/08/04 09:08:03;;;;;;;1.67;0.30;;;18.60;1.00;;;;;;5010787;28;20224;-75
2023/08/04 09:10:28;;;;;;;1.25;0.35;;;18.10;1.00;;;;;;5027216;28;20174;-73
2023/08/04 09:12:56;;;;;;;1.33;0.40;;;18.10;1.00;;;;;;5030484;28;20177;-73
2023/08/04 09:15:55;;;;;;;1.63;0.50;;;18.20;99.90;;;;;;5030319;28;20170;-73
2023/08/04 09:18:30;;;;;;;1.90;0.40;;;18.50;1.00;;;;;;5024800;28;20193;-74
2023/08/04 09:21:08;;;;;;;2.55;0.40;;;19.00;34.50;;;;;;5030260;28;20173;-75
2023/08/04 09:23:48;;;;;;;1.83;0.50;;;19.20;1.00;;;;;;5030213;28;20224;-74
2023/08/04 09:26:14;;;;;;;2.25;0.45;;;;;;;;;;5050225;28;20234;-73
2023/08/04 09:28:40;;;;;;;2.72;0.47;;;20.40;99.90;;;;;;5045405;28;20173;-74
2023/08/04 09:31:08;;;;;;;1.10;0.43;;;19.80;1.00;;;;;;5049839;28;20177;-74
2023/08/04 09:33:38;;;;;;;1.95;0.40;;;19.70;1.00;;;;;;5050014;28;20177;-73
2023/08/04 09:36:09;;;;;;;0.63;0.30;;;19.20;99.90;;;;;;5045895;28;20632;-73
2023/08/04 09:38:37;;;;;;;0.50;0.40;;;19.30;1.00;;;;;;5034645;28;20267;-73
2023/08/04 09:41:14;;;;;;;0.20;0.20;;;19.10;1.00;;;;;;5041079;28;20162;-74
2023/08/04 09:43:47;;;;;;;4.20;0.55;;;19.00;1.00;;;;;;5048809;28;20197;-74
2023/08/04 09:46:14;;;;;;;2.13;0.40;;;19.70;1.00;;;;;;5052948;28;20177;-74
2023/08/04 09:48:39;;;;;;;1.25;0.50;;;19.30;99.90;;;;;;5051859;28;20218;-74
2023/08/04 09:51:07;;;;;;;1.88;0.50;;;18.90;1.00;;;;;;5051673;28;20239;-74
2023/08/04 09:53:43;;;;;;;4.63;0.68;;;19.30;1.00;;;;;;5052678;28;20177;-73
2023/08/04 09:56:10;;;;;;;0.73;0.50;;;19.40;1.00;;;;;;5051185;28;20541;-73
2023/08/04 09:58:36;;;;;;;0.95;0.60;;;19.30;1.00;;;;;;5037945;28;20173;-73
2023/08/04 10:01:03;;;;;;;0.75;0.40;;;19.30;89.60;;;;;;5032642;28;20166;-73
2023/08/04 10:03:29;;;;;;;3.72;0.65;;;19.30;1.00;;;;;;5033584;28;20192;-73
2023/08/04 10:06:05;;;;;;;1.85;0.47;;;19.40;99.90;;;;;;5030589;28;20201;-74
2023/08/04 10:08:39;;;;;;;1.27;0.50;;;19.60;1.00;;;;;;5036979;28;20187;-74
2023/08/04 10:11:06;;;;;;;2.38;0.63;;;19.60;99.90;;;;;;5045780;28;20178;-75
2023/08/04 10:13:34;;;;;;;1.10;0.45;;;19.70;99.90;;;;;;5033532;28;20174;-75
2023/08/04 10:16:03;;;;;;;1.63;0.43;;;19.80;1.00;;;;;;5033186;28;20240;-75
2023/08/04 10:18:55;;;;;;;0.95;0.50;;;19.50;1.00;;;;;;5042716;28;20242;-74
2023/08/04 10:21:41;;;;;;;1.27;0.60;;;19.30;1.00;;;;;;5047598;28;20240;-74
2023/08/04 10:24:11;;;;;;;1.40;0.50;;;19.50;1.00;;;;;;5034305;28;20283;-74
2023/08/04 10:26:49;;;;;;;2.58;0.40;;;19.20;99.90;;;;;;5032581;28;20710;-74
2023/08/04 10:29:15;;;;;;;1.58;0.60;;;19.70;1.00;;;;;;5017099;28;20264;-74
2023/08/04 10:31:43;;;;;;;0.88;0.40;;;20.00;1.00;;;;;;5027588;28;20185;-75
2023/08/04 10:34:36;;;;;;;1.10;0.47;;;19.90;1.00;;;;;;5032955;28;20178;-77
2023/08/04 10:37:06;;;;;;;0.60;0.50;;;19.50;1.00;;;;;;5032515;28;20747;-75
2023/08/04 10:39:34;;;;;;;0.95;0.50;;;19.50;1.00;;;;;;5042483;28;20180;-75
2023/08/04 10:42:03;;;;;;;2.33;0.60;;;19.40;1.00;;;;;;5032194;28;20300;-75
2023/08/04 10:44:45;;;;;;;1.58;0.63;;;19.20;1.00;;;;;;5032476;28;20178;-75
2023/08/04 10:47:12;;;;;;;0.95;0.40;;;19.40;1.00;;;;;;5045305;28;20170;-74
2023/08/04 10:49:37;;;;;;;1.45;0.43;;;19.50;99.90;;;;;;5052492;28;20177;-75
2023/08/04 10:52:04;;;;;;;2.25;0.55;;;19.50;99.90;;;;;;5052446;28;20656;-75
2023/08/04 10:54:29;;;;;;;1.80;0.80;;;19.70;99.90;;;;;;5052349;28;20172;-75
2023/08/04 10:56:55;;;;;;;1.13;0.55;;;19.70;1.00;;;;;;5050542;28;20172;-74
2023/08/04 10:59:21;;;;;;;1.33;0.50;;;19.50;99.90;;;;;;5052208;28;20173;-77
2023/08/04 11:01:47;;;;;;;2.60;0.90;;;19.50;99.90;;;;;;5052178;28;20266;-74
2023/08/04 11:04:17;;;;;;;2.33;0.70;;;19.60;99.90;;;;;;5052091;28;20624;-75
2023/08/04 11:06:45;;;;;;;3.03;0.77;;;19.80;99.90;;;;;;5050383;28;20173;-74
2023/08/04 11:09:11;;;;;;;2.88;0.80;;;20.00;99.90;;;;;;5050519;28;20173;-74
2023/08/04 11:11:37;;;;;;;6.07;0.95;;;20.10;99.90;;;;;;5050173;28;20640;-76
2023/08/04 11:14:06;;;;;;;1.92;0.77;;;20.30;99.90;;;;;;5051805;28;20256;-75
2023/08/04 11:16:35;;;;;;;1.67;0.70;;;20.10;1.00;;;;;;5044540;28;20166;-76
2023/08/04 11:19:03;;;;;;;1.00;0.65;;;20.60;1.00;;;;;;5030842;28;20170;-77
2023/08/04 11:21:30;;;;;;;2.67;1.15;;;21.30;1.00;;;;;;5032000;28;20205;-75
2023/08/04 11:23:55;;;;;;;1.92;0.80;;;21.30;1.00;;;;;;5031760;28;20181;-76
2023/08/04 11:26:22;;;;;;;3.55;1.00;;;21.50;99.90;;;;;;5033994;28;20178;-76
2023/08/04 11:28:48;;;;;;;3.38;1.30;;;21.40;99.90;;;;;;5031732;28;20192;-75
2023/08/04 11:31:20;;;;;;;4.15;1.10;;;20.90;99.90;;;;;;5032008;28;20589;-77
2023/08/04 11:33:45;;;;;;;3.78;0.95;;;20.80;99.90;;;;;;5035899;28;20181;-76
2023/08/04 11:36:11;;;;;;;2.08;1.00;;;21.00;99.90;;;;;;5051771;28;20219;-77
2023/08/04 11:38:38;;;;;;;1.10;0.77;;;20.90;99.90;;;;;;5051403;28;20220;-76
2023/08/04 11:41:09;;;;;;;2.92;0.88;;;20.90;99.90;;;;;;5036571;28;20173;-76
2023/08/04 11:43:35;;;;;;;2.15;0.95;;;;;;;;;;5020430;28;20174;-77
2023/08/04 11:46:09;;;;;;;4.15;1.20;;;22.10;75.20;;;;;;5031259;28;20657;-77
2023/08/04 11:48:38;;;;;;;1.73;0.80;;;23.30;1.00;;;;;;5039197;28;20175;-77
2023/08/04 11:51:07;;;;;;;2.40;0.90;;;24.50;99.90;;;;;;5035589;28;20193;-76
2023/08/04 11:53:33;;;;;;;2.15;0.93;;;25.10;98.40;;;;;;5050157;28;20204;-78
2023/08/04 11:56:02;;;;;;;4.82;1.50;;;24.80;1.00;;;;;;5049411;28;20741;-78
2023/08/04 11:58:29;;;;;;;2.50;1.10;;;24.10;1.00;;;;;;5050246;28;20165;-77
2023/08/04 12:00:55;;;;;;;4.70;1.58;;;23.20;55.30;;;;;;5031402;28;20170;-77
2023/08/04 12:03:20;;;;;;;4.60;1.13;;;22.30;99.90;;;;;;5038720;28;20227;-76
2023/08/04 12:05:46;;;;;;;4.95;1.25;;;22.00;99.90;;;;;;5051796;28;20239;-74
2023/08/04 12:08:14;;;;;;;4.10;1.40;;;21.70;1.00;;;;;;5050716;28;20181;-81
2023/08/04 12:10:40;;;;;;;2.58;1.17;;;21.20;99.90;;;;;;5051435;28;20169;-78
2023/08/04 12:13:07;;;;;;;3.85;1.25;;;21.50;1.00;;;;;;5040462;28;20620;-77
2023/08/04 12:15:52;;;;;;;4.25;1.42;;;21.50;1.00;;;;;;5038069;28;20177;-79
2023/08/04 12:18:25;;;;;;;2.55;1.15;;;22.00;1.00;;;;;;5034451;28;20178;-77
2023/08/04 12:20:50;;;;;;;5.55;1.25;;;22.30;1.00;;;;;;5027767;28;20178;-76
2023/08/04 12:23:16;;;;;;;4.97;1.27;;;22.60;99.90;;;;;;5031218;28;20235;-78
2023/08/04 12:25:42;;;;;;;2.75;1.20;;;22.50;99.90;;;;;;5033551;28;20173;-75
2023/08/04 12:28:07;;;;;;;4.15;1.48;;;22.30;99.90;;;;;;5030666;28;20644;-74
2023/08/04 12:30:33;;;;;;;3.38;1.20;;;22.60;99.90;;;;;;5030699;28;20170;-75
2023/08/04 12:32:58;;;;;;;3.47;1.50;;;22.50;99.90;;;;;;5029654;28;20174;-76
2023/08/04 12:35:24;;;;;;;3.38;1.30;;;22.40;99.90;;;;;;5030627;28;20174;-76
2023/08/04 12:37:49;;;;;;;1.70;0.95;;;22.40;1.00;;;;;;5033733;28;20217;-76
2023/08/04 12:40:15;;;;;;;2.42;1.63;;;23.60;1.00;;;;;;5050662;28;20264;-76
2023/08/04 12:42:41;;;;;;;4.60;1.50;;;23.60;1.00;;;;;;5049918;28;20213;-80
2023/08/04 12:45:06;;;;;;;3.53;1.52;;;23.70;1.00;;;;;;5050809;28;20180;-77
2023/08/04 12:47:32;;;;;;;3.72;1.58;;;24.60;1.00;;;;;;5047561;28;20185;-78
2023/08/04 12:49:58;;;;;;;5.53;1.50;;;25.20;1.00;;;;;;5047213;28;20660;-76
2023/08/04 12:52:23;;;;;;;4.63;1.88;;;26.50;1.00;;;;;;5033045;28;20253;-76